Time;durP1;ratioP1;P1;durP2;ratioP2;P2;SDS_P1;SDS_P2;PMS_P1;PMS_P2;Temp;Humidity;BMP_temperature;BMP_pressure;BME280_temperature;BME280_humidity;BME280_pressure;Samples;Min_cycle;Max_cycle;Signal;HPM_P1;HPM_P2
2023/02/28 00:00:14;;;;;;;6.20;5.70;;;;;;;;;;5000904;28;20849;-92
2023/02/28 00:02:41;;;;;;;6.25;5.65;;;;;;;;;;4993657;28;20770;-89
2023/02/28 00:05:08;;;;;;;6.13;5.63;;;;;;;;;;5011350;28;20427;-89
2023/02/28 00:07:34;;;;;;;6.13;5.63;;;;;;;;;;4994446;28;20408;-90
2023/02/28 00:10:03;;;;;;;6.25;5.72;;;;;;;;;;5011372;28;20469;-90
2023/02/28 00:12:29;;;;;;;6.47;5.87;;;;;;;;;;5008508;28;20396;-89
2023/02/28 00:14:55;;;;;;;6.35;5.85;;;;;;;;;;4993989;28;20449;-89
2023/02/28 00:17:21;;;;;;;6.33;5.83;;;;;;;;;;5003236;28;20551;-91
2023/02/28 00:19:48;;;;;;;6.30;5.70;;;;;;;;;;4988891;28;20393;-91
2023/02/28 00:22:15;;;;;;;6.43;5.93;;;;;;;;;;5012024;28;20483;-89
2023/02/28 00:24:41;;;;;;;6.50;6.00;;;;;;;;;;5011451;28;20393;-89
2023/02/28 00:27:07;;;;;;;6.72;6.18;;;;;;;;;;4994025;28;20451;-90
2023/02/28 00:29:33;;;;;;;6.72;6.13;;;;;;;;;;5015520;28;20452;-89
2023/02/28 00:31:59;;;;;;;6.30;5.80;;;;;;;;;;5015329;28;20753;-90
2023/02/28 00:34:25;;;;;;;6.07;5.63;;;;;;;;;;5015466;28;20384;-90
2023/02/28 00:36:51;;;;;;;6.20;5.70;;;;;;;;;;5015473;28;20387;-90
2023/02/28 00:39:17;;;;;;;6.10;5.60;;;;;;;;;;4997867;28;20774;-92
2023/02/28 00:41:43;;;;;;;6.75;6.15;;;;;;;;;;5015162;28;20392;-92
2023/02/28 00:44:09;;;;;;;6.25;5.75;;;;;;;;;;4997863;28;20459;-89
2023/02/28 00:46:35;;;;;;;6.30;5.80;;;;;;;;;;5015504;28;20845;-89
2023/02/28 00:49:01;;;;;;;7.00;6.50;;;;;;;;;;5015534;28;20415;-91
2023/02/28 00:51:27;;;;;;;6.47;5.97;;;;;;;;;;5004043;28;20863;-90
2023/02/28 00:53:53;;;;;;;6.38;5.88;;;;;;;;;;5020986;28;20385;-88
2023/02/28 00:56:19;;;;;;;6.65;6.05;;;;;;;;;;5025997;28;20417;-89
2023/02/28 00:58:45;;;;;;;6.20;5.63;;;;;;;;;;5009246;28;20389;-93
2023/02/28 01:01:11;;;;;;;6.38;5.88;;;;;;;;;;5023808;28;20480;-92
2023/02/28 01:03:38;;;;;;;5.77;5.37;;;;;;;;;;5035603;28;20424;-89
2023/02/28 01:06:04;;;;;;;6.67;6.10;;;;;;;;;;5032344;28;20480;-89
2023/02/28 01:08:30;;;;;;;6.30;5.80;;;;;;;;;;5024898;28;20439;-89
2023/02/28 01:10:56;;;;;;;6.28;5.78;;;;;;;;;;5000077;28;20478;-90
2023/02/28 01:13:23;;;;;;;6.30;5.80;;;;;;;;;;4998792;28;20900;-89
2023/02/28 01:15:53;;;;;;;6.82;6.22;;;;;;;;;;4998412;28;20403;-89
2023/02/28 01:18:20;;;;;;;6.28;5.78;;;;;;;;;;4998456;28;20401;-90
2023/02/28 01:20:46;;;;;;;6.47;5.88;;;;;;;;;;5015326;28;20428;-89
2023/02/28 01:23:12;;;;;;;6.43;5.82;;;;;;;;;;5015761;28;20385;-91
2023/02/28 01:25:38;;;;;;;5.60;5.20;;;;;;;;;;4991056;28;20405;-89
2023/02/28 01:28:05;;;;;;;6.40;5.90;;;;;;;;;;5008351;28;20421;-89
2023/02/28 01:30:31;;;;;;;5.85;5.35;;;;;;;;;;4992543;28;20406;-90
2023/02/28 01:32:57;;;;;;;6.30;5.70;;;;;;;;;;4988396;28;20869;-89
2023/02/28 01:35:23;;;;;;;5.68;5.18;;;;;;;;;;5014641;28;20435;-91
2023/02/28 01:37:49;;;;;;;5.65;5.13;;;;;;;;;;4996930;28;20452;-90
2023/02/28 01:40:15;;;;;;;5.43;4.93;;;;;;;;;;5014399;28;20424;-89
2023/02/28 01:42:41;;;;;;;5.55;5.05;;;;;;;;;;5014460;28;20837;-89
2023/02/28 01:45:25;;;;;;;5.32;4.90;;;;;;;;;;5014554;28;20847;-90
2023/02/28 01:47:54;;;;;;;5.90;5.40;;;;;;;;;;4996962;28;20468;-90
2023/02/28 01:50:23;;;;;;;5.53;5.10;;;;;;;;;;4993258;28;20417;-90
2023/02/28 01:52:49;;;;;;;5.68;5.28;;;;;;;;;;4996866;28;20476;-90
2023/02/28 01:55:17;;;;;;;5.60;5.10;;;;;;;;;;5014116;28;20380;-89
2023/02/28 01:57:47;;;;;;;6.10;5.60;;;;;;;;;;5005251;28;20889;-90
2023/02/28 02:00:15;;;;;;;6.05;5.15;;;;;;;;;;4996125;28;20393;-90
2023/02/28 02:02:45;;;;;;;5.65;5.15;;;;;;;;;;4998506;28;20386;-89
2023/02/28 02:05:16;;;;;;;5.68;5.13;;;;;;;;;;5013860;28;20430;-90
2023/02/28 02:07:44;;;;;;;5.80;5.30;;;;;;;;;;5013876;28;20438;-89
2023/02/28 02:10:16;;;;;;;5.82;5.20;;;;;;;;;;5013694;28;20439;-90
2023/02/28 02:12:47;;;;;;;5.70;5.20;;;;;;;;;;5011381;28;20520;-89
2023/02/28 02:15:21;;;;;;;5.87;5.37;;;;;;;;;;4996024;28;20393;-88
2023/02/28 02:17:50;;;;;;;5.68;5.18;;;;;;;;;;5013466;28;20451;-90
2023/02/28 02:20:42;;;;;;;6.10;5.60;;;;;;;;;;5013363;28;20393;-91
2023/02/28 02:23:22;;;;;;;5.50;5.10;;;;;;;;;;5009178;28;20861;-89
2023/02/28 02:26:00;;;;;;;6.57;5.90;;;;;;;;;;5013321;28;20438;-89
2023/02/28 02:28:43;;;;;;;6.30;5.70;;;;;;;;;;5013538;28;20470;-91
2023/02/28 02:31:21;;;;;;;6.15;5.75;;;;;;;;;;5013435;28;20438;-89
2023/02/28 02:33:47;;;;;;;5.88;5.47;;;;;;;;;;5013061;28;20388;-90
2023/02/28 02:36:17;;;;;;;5.43;5.03;;;;;;;;;;5013239;28;20778;-89
2023/02/28 02:38:46;;;;;;;5.45;5.05;;;;;;;;;;5013085;28;20393;-88
2023/02/28 02:41:18;;;;;;;6.13;5.68;;;;;;;;;;5003593;28;20401;-90
2023/02/28 02:43:53;;;;;;;5.70;5.20;;;;;;;;;;4989475;28;20411;-89
2023/02/28 02:46:35;;;;;;;6.10;5.22;;;;;;;;;;5009070;28;20426;-90
2023/02/28 02:49:04;;;;;;;5.97;5.47;;;;;;;;;;5001243;28;20455;-88
2023/02/28 02:51:31;;;;;;;5.90;5.40;;;;;;;;;;5009661;28;20534;-91
2023/02/28 02:54:06;;;;;;;5.65;5.20;;;;;;;;;;5012365;28;20902;-90
2023/02/28 02:56:34;;;;;;;5.13;4.72;;;;;;;;;;5009021;28;20391;-90
2023/02/28 02:59:01;;;;;;;7.07;5.38;;;;;;;;;;5007937;28;20404;-89
2023/02/28 03:01:29;;;;;;;6.00;5.40;;;;;;;;;;4994486;28;20438;-90
2023/02/28 03:03:59;;;;;;;6.10;5.50;;;;;;;;;;4995094;28;20742;-90
2023/02/28 03:06:26;;;;;;;5.93;5.43;;;;;;;;;;5013066;28;20474;-89
2023/02/28 03:08:52;;;;;;;5.97;5.40;;;;;;;;;;4995080;28;20479;-89
2023/02/28 03:11:20;;;;;;;6.05;5.50;;;;;;;;;;5012658;28;20392;-89
2023/02/28 03:13:58;;;;;;;5.63;5.20;;;;;;;;;;5013019;28;20383;-89
2023/02/28 03:16:30;;;;;;;6.00;5.40;;;;;;;;;;4994985;28;20405;-90
2023/02/28 03:19:05;;;;;;;6.18;5.53;;;;;;;;;;5012495;28;20449;-91
2023/02/28 03:21:38;;;;;;;5.50;5.00;;;;;;;;;;5012301;28;20415;-89
2023/02/28 03:24:17;;;;;;;5.68;5.22;;;;;;;;;;5012461;28;20445;-89
2023/02/28 03:26:44;;;;;;;6.00;5.50;;;;;;;;;;5012463;28;20446;-90
2023/02/28 03:29:12;;;;;;;5.70;5.30;;;;;;;;;;5012466;28;20435;-89
2023/02/28 03:31:43;;;;;;;5.55;5.05;;;;;;;;;;5012437;28;20434;-89
2023/02/28 03:34:29;;;;;;;5.78;5.25;;;;;;;;;;5012374;28;20424;-89
2023/02/28 03:36:59;;;;;;;6.18;5.68;;;;;;;;;;5012132;28;20408;-89
2023/02/28 03:39:37;;;;;;;8.48;7.68;;;;;;;;;;4994584;28;20500;-90
2023/02/28 03:42:12;;;;;;;11.63;9.80;;;;;;;;;;4994228;28;20411;-90
2023/02/28 03:44:40;;;;;;;14.43;11.00;;;;;;;;;;4984399;28;20402;-90
2023/02/28 03:47:12;;;;;;;49.92;27.33;;;;;;;;;;4990007;28;20858;-90
2023/02/28 03:50:02;;;;;;;16.23;11.07;;;;;;;;;;5011632;28;20467;-89
2023/02/28 03:52:29;;;;;;;43.17;22.33;;;;;;;;;;4985527;28;20928;-90
2023/02/28 03:54:57;;;;;;;15.30;11.18;;;;;;;;;;5011891;28;20382;-89
2023/02/28 03:57:35;;;;;;;174.05;72.35;;;;;;;;;;5003237;28;20428;-90
2023/02/28 04:00:13;;;;;;;183.53;65.80;;;;;;;;;;5011673;28;25108;-89
2023/02/28 04:02:39;;;;;;;21.60;12.30;;;;;;;;;;4993176;28;20397;-88
2023/02/28 04:05:06;;;;;;;71.63;30.97;;;;;;;;;;5008829;28;20510;-89
2023/02/28 04:07:32;;;;;;;82.65;31.98;;;;;;;;;;4991059;28;20395;-89
2023/02/28 04:09:59;;;;;;;13.88;9.05;;;;;;;;;;5010032;28;20446;-89
2023/02/28 04:12:25;;;;;;;26.47;14.27;;;;;;;;;;5009838;28;20398;-90
2023/02/28 04:14:51;;;;;;;9.32;8.38;;;;;;;;;;5014535;28;20379;-91
2023/02/28 04:17:17;;;;;;;9.25;8.43;;;;;;;;;;5013598;28;20433;-88
2023/02/28 04:19:44;;;;;;;10.32;9.48;;;;;;;;;;5024135;28;20384;-90
2023/02/28 04:22:10;;;;;;;5.97;5.47;;;;;;;;;;5028983;28;20392;-90
2023/02/28 04:24:36;;;;;;;6.05;5.55;;;;;;;;;;5015691;28;20380;-89
2023/02/28 04:27:03;;;;;;;6.18;5.68;;;;;;;;;;4995121;28;20419;-90
2023/02/28 04:29:32;;;;;;;6.00;5.50;;;;;;;;;;4983621;28;20442;-90
2023/02/28 04:31:58;;;;;;;6.43;5.93;;;;;;;;;;5008463;28;20430;-90
2023/02/28 04:34:27;;;;;;;6.05;5.53;;;;;;;;;;5004508;28;20459;-89
2023/02/28 04:37:00;;;;;;;6.10;5.60;;;;;;;;;;4979651;28;20490;-89
2023/02/28 04:39:26;;;;;;;6.10;5.60;;;;;;;;;;4980716;28;20407;-89
2023/02/28 04:41:52;;;;;;;5.90;5.40;;;;;;;;;;4993761;28;20377;-90
2023/02/28 04:44:18;;;;;;;6.53;5.93;;;;;;;;;;5012064;28;20389;-90
2023/02/28 04:46:44;;;;;;;6.30;5.80;;;;;;;;;;5011533;28;20897;-89
2023/02/28 04:49:13;;;;;;;6.65;6.05;;;;;;;;;;4996019;28;20414;-89
2023/02/28 04:51:39;;;;;;;6.83;6.20;;;;;;;;;;4991163;28;20474;-89
2023/02/28 04:54:05;;;;;;;7.10;6.40;;;;;;;;;;4990265;28;20390;-90
2023/02/28 04:56:31;;;;;;;7.55;6.95;;;;;;;;;;4994293;28;20422;-89
2023/02/28 04:58:57;;;;;;;6.72;6.22;;;;;;;;;;4996568;28;20389;-90
2023/02/28 05:01:28;;;;;;;6.38;5.88;;;;;;;;;;5001992;28;20470;-89
2023/02/28 05:03:55;;;;;;;7.47;6.78;;;;;;;;;;4992100;28;20449;-92
2023/02/28 05:06:23;;;;;;;6.45;5.95;;;;;;;;;;5013370;28;20393;-92
2023/02/28 05:08:49;;;;;;;6.70;6.10;;;;;;;;;;5013928;28;20450;-93
2023/02/28 05:11:23;;;;;;;6.47;5.97;;;;;;;;;;5017399;23;20436;-91
2023/02/28 05:13:49;;;;;;;6.63;5.97;;;;;;;;;;5014817;28;20403;-91
2023/02/28 05:16:16;;;;;;;6.13;5.53;;;;;;;;;;5016690;28;20400;-92
2023/02/28 05:18:44;;;;;;;5.97;5.47;;;;;;;;;;5011587;28;20397;-93
2023/02/28 05:21:24;;;;;;;6.43;5.93;;;;;;;;;;5008343;28;20455;-92
2023/02/28 05:23:50;;;;;;;5.83;5.33;;;;;;;;;;5002277;28;20439;-92
2023/02/28 05:29:14;;;;;;;6.18;5.57;;;;;;;;;;4981105;28;20404;-91
2023/02/28 05:31:40;;;;;;;5.95;5.45;;;;;;;;;;5014537;28;20403;-90
2023/02/28 05:34:35;;;;;;;6.40;5.80;;;;;;;;;;4995452;28;20386;-90
2023/02/28 05:37:03;;;;;;;7.32;5.78;;;;;;;;;;4930325;29;20396;-91
2023/02/28 05:39:33;;;;;;;6.43;5.90;;;;;;;;;;4929781;29;20757;-90
2023/02/28 05:42:02;;;;;;;5.45;5.03;;;;;;;;;;4934560;29;20491;-92
2023/02/28 05:44:28;;;;;;;6.23;5.73;;;;;;;;;;4934781;29;20572;-90
2023/02/28 05:46:54;;;;;;;6.15;5.65;;;;;;;;;;4934517;29;20485;-90
2023/02/28 05:49:22;;;;;;;6.43;5.83;;;;;;;;;;5012719;28;20997;-89
2023/02/28 05:51:51;;;;;;;6.30;5.78;;;;;;;;;;5014342;28;20489;-91
2023/02/28 05:54:17;;;;;;;6.55;5.85;;;;;;;;;;5014527;28;20752;-89
2023/02/28 05:57:04;;;;;;;6.38;5.88;;;;;;;;;;5014647;28;20850;-91
2023/02/28 05:59:30;;;;;;;6.03;5.50;;;;;;;;;;5014141;28;20447;-90
2023/02/28 06:01:56;;;;;;;6.47;5.97;;;;;;;;;;4997869;28;20397;-90
2023/02/28 06:04:22;;;;;;;6.80;6.25;;;;;;;;;;5010677;28;20393;-90
2023/02/28 06:06:50;;;;;;;6.30;5.65;;;;;;;;;;5005245;28;20379;-89
2023/02/28 06:09:17;;;;;;;6.75;5.95;;;;;;;;;;4976790;28;20923;-90
2023/02/28 06:11:43;;;;;;;6.70;6.10;;;;;;;;;;4981840;28;20918;-90
2023/02/28 06:14:14;;;;;;;6.20;5.60;;;;;;;;;;5006923;28;20412;-91
2023/02/28 06:16:40;;;;;;;6.18;5.68;;;;;;;;;;5007469;28;20459;-89
2023/02/28 06:19:06;;;;;;;6.40;5.90;;;;;;;;;;4994040;28;20402;-91
2023/02/28 06:21:32;;;;;;;7.38;6.45;;;;;;;;;;5000196;28;20457;-88
2023/02/28 06:23:59;;;;;;;6.50;5.90;;;;;;;;;;5013682;28;20424;-90
2023/02/28 06:26:25;;;;;;;6.57;5.97;;;;;;;;;;5012805;28;20396;-86
2023/02/28 06:28:51;;;;;;;6.85;6.25;;;;;;;;;;5013042;28;20404;-87
2023/02/28 06:31:17;;;;;;;6.88;6.28;;;;;;;;;;5013067;28;20778;-88
2023/02/28 06:33:44;;;;;;;6.40;5.90;;;;;;;;;;5012756;28;20393;-89
2023/02/28 06:36:11;;;;;;;7.10;6.50;;;;;;;;;;5012073;28;20401;-90
2023/02/28 06:38:37;;;;;;;6.90;6.30;;;;;;;;;;4995249;28;20392;-88
2023/02/28 06:41:03;;;;;;;7.38;6.63;;;;;;;;;;5013042;28;20432;-86
2023/02/28 06:43:30;;;;;;;6.75;6.13;;;;;;;;;;5013062;28;20384;-88
2023/02/28 06:45:57;;;;;;;7.20;6.50;;;;;;;;;;5012348;28;20400;-85
2023/02/28 06:48:23;;;;;;;7.30;6.60;;;;;;;;;;5013079;28;20384;-91
2023/02/28 06:50:49;;;;;;;7.45;6.78;;;;;;;;;;4995212;28;20397;-82
2023/02/28 06:53:15;;;;;;;9.85;7.07;;;;;;;;;;5013047;28;20620;-80
2023/02/28 06:55:41;;;;;;;8.23;7.10;;;;;;;;;;5012441;28;20415;-81
2023/02/28 06:58:14;;;;;;;7.20;6.47;;;;;;;;;;5005678;28;20395;-81
2023/02/28 07:00:42;;;;;;;7.68;7.00;;;;;;;;;;5005439;28;20975;-81
2023/02/28 07:03:08;;;;;;;7.37;6.73;;;;;;;;;;5012200;28;20399;-81
2023/02/28 07:05:35;;;;;;;7.57;6.88;;;;;;;;;;5012574;28;20508;-81
2023/02/28 07:08:05;;;;;;;8.02;7.32;;;;;;;;;;4998868;28;20381;-81
2023/02/28 07:10:31;;;;;;;8.45;7.47;;;;;;;;;;5012345;28;20512;-81
2023/02/28 07:12:57;;;;;;;8.77;8.03;;;;;;;;;;5003912;28;20456;-81
2023/02/28 07:15:23;;;;;;;8.48;7.80;;;;;;;;;;5012541;28;20397;-81
2023/02/28 07:17:49;;;;;;;8.82;7.93;;;;;;;;;;4994603;28;20464;-80
2023/02/28 07:20:15;;;;;;;11.57;10.63;;;;;;;;;;5012538;28;20525;-80
2023/02/28 07:22:41;;;;;;;8.65;7.95;;;;;;;;;;5012612;28;20376;-80
2023/02/28 07:25:07;;;;;;;9.10;8.25;;;;;;;;;;5011967;28;20723;-80
2023/02/28 07:27:34;;;;;;;11.38;10.57;;;;;;;;;;5012195;28;20515;-81
2023/02/28 07:30:01;;;;;;;9.50;8.80;;;;;;;;;;5012045;28;20420;-80
2023/02/28 07:32:27;;;;;;;8.70;8.05;;;;;;;;;;5000366;28;20459;-82
2023/02/28 07:34:53;;;;;;;9.00;8.30;;;;;;;;;;4992626;28;20937;-84
2023/02/28 07:37:20;;;;;;;9.07;8.30;;;;;;;;;;5006991;28;20408;-83
2023/02/28 07:39:46;;;;;;;9.30;8.50;;;;;;;;;;5019871;28;20384;-83
2023/02/28 07:42:12;;;;;;;9.10;8.30;;;;;;;;;;5023302;28;20385;-82
2023/02/28 07:44:42;;;;;;;8.32;7.72;;;;;;;;;;5019665;28;20385;-82
2023/02/28 07:47:11;;;;;;;8.27;7.60;;;;;;;;;;5015198;28;20388;-83
2023/02/28 07:49:37;;;;;;;9.20;8.50;;;;;;;;;;5012874;28;20445;-82
2023/02/28 07:52:04;;;;;;;9.02;8.18;;;;;;;;;;5011919;28;20450;-83
2023/02/28 07:54:30;;;;;;;9.00;8.30;;;;;;;;;;5011966;28;20377;-83
2023/02/28 07:56:56;;;;;;;9.25;8.45;;;;;;;;;;5010504;28;20475;-82
2023/02/28 07:59:22;;;;;;;8.80;8.10;;;;;;;;;;5011514;28;20843;-82
2023/02/28 08:01:50;;;;;;;8.70;8.00;;;;;;;;;;5011919;28;20484;-82
2023/02/28 08:04:16;;;;;;;9.40;8.60;;;;;;;;;;5010805;28;20795;-82
2023/02/28 08:06:42;;;;;;;8.95;8.25;;;;;;;;;;5011558;28;20387;-82
2023/02/28 08:09:08;;;;;;;8.98;8.27;;;;;;;;;;5011309;28;20466;-83
2023/02/28 08:11:34;;;;;;;9.45;8.65;;;;;;;;;;5006563;28;20474;-83
2023/02/28 08:14:00;;;;;;;8.90;8.20;;;;;;;;;;5004116;28;20432;-83
2023/02/28 08:16:26;;;;;;;8.60;7.90;;;;;;;;;;5011805;28;20427;-83
2023/02/28 08:18:52;;;;;;;8.93;8.20;;;;;;;;;;5009747;28;20403;-83
2023/02/28 08:21:19;;;;;;;9.77;8.87;;;;;;;;;;5011858;28;20904;-83
2023/02/28 08:23:47;;;;;;;14.35;13.05;;;;;;;;;;5011590;28;20495;-83
2023/02/28 08:26:13;;;;;;;9.55;8.73;;;;;;;;;;5011477;28;20422;-83
2023/02/28 08:28:39;;;;;;;8.60;7.90;;;;;;;;;;5011381;28;20381;-83
2023/02/28 08:31:10;;;;;;;9.30;8.43;;;;;;;;;;5011496;28;20391;-84
2023/02/28 08:33:36;;;;;;;8.90;8.20;;;;;;;;;;5011487;28;20827;-84
2023/02/28 08:36:03;;;;;;;8.98;8.38;;;;;;;;;;5011466;28;20476;-84
2023/02/28 08:38:29;;;;;;;8.95;8.18;;;;;;;;;;5011647;28;20432;-84
2023/02/28 08:40:59;;;;;;;9.40;8.60;;;;;;;;;;5011279;28;20384;-84
2023/02/28 08:43:25;;;;;;;9.27;8.27;;;;;;;;;;4996830;28;20429;-80
2023/02/28 08:45:56;;;;;;;9.10;8.30;;;;;;;;;;4991313;28;20386;-81
2023/02/28 08:48:22;;;;;;;9.30;8.48;;;;;;;;;;4993907;28;20474;-81
2023/02/28 08:50:58;;;;;;;9.18;8.38;;;;;;;;;;5000744;28;20454;-81
2023/02/28 08:53:24;;;;;;;9.52;8.73;;;;;;;;;;4995281;28;20851;-82
2023/02/28 08:56:01;;;;;;;9.73;8.93;;;;;;;;;;4996004;28;20397;-83
2023/02/28 08:58:28;;;;;;;9.65;8.85;;;;;;;;;;4995876;28;20387;-83
2023/02/28 09:00:54;;;;;;;9.83;9.03;;;;;;;;;;4996532;28;20402;-83
2023/02/28 09:03:20;;;;;;;9.45;8.73;;;;;;;;;;4996169;28;20382;-83
2023/02/28 09:05:53;;;;;;;9.60;8.82;;;;;;;;;;4999641;28;20795;-83
2023/02/28 09:08:19;;;;;;;9.75;8.95;;;;;;;;;;4996101;28;20387;-83
2023/02/28 09:10:45;;;;;;;10.05;9.13;;;;;;;;;;4995178;28;20425;-83
2023/02/28 09:13:11;;;;;;;10.60;9.80;;;;;;;;;;4998184;28;20445;-83
2023/02/28 09:15:38;;;;;;;10.02;9.20;;;;;;;;;;5002206;28;20369;-83
2023/02/28 09:18:04;;;;;;;10.00;9.20;;;;;;;;;;5000164;28;20450;-84
2023/02/28 09:20:30;;;;;;;10.13;9.23;;;;;;;;;;5014529;28;20384;-84
2023/02/28 09:22:56;;;;;;;9.88;8.98;;;;;;;;;;5014242;28;20892;-84
2023/02/28 09:25:22;;;;;;;9.23;8.45;;;;;;;;;;5014524;28;20483;-84
2023/02/28 09:27:48;;;;;;;9.98;9.10;;;;;;;;;;5014649;28;20435;-84
2023/02/28 09:30:14;;;;;;;9.77;8.98;;;;;;;;;;5014366;28;20817;-84
2023/02/28 09:32:40;;;;;;;9.52;8.82;;;;;;;;;;5014589;28;20384;-84
2023/02/28 09:35:06;;;;;;;9.93;9.13;;;;;;;;;;5014579;28;20400;-84
2023/02/28 09:37:32;;;;;;;9.93;9.03;;;;;;;;;;5014607;28;20419;-84
2023/02/28 09:39:58;;;;;;;9.65;8.88;;;;;;;;;;5003189;28;20413;-84
2023/02/28 09:42:30;;;;;;;9.85;8.90;;;;;;;;;;4996881;28;20755;-84
2023/02/28 09:44:57;;;;;;;9.90;9.10;;;;;;;;;;5004931;28;20441;-84
2023/02/28 09:47:38;;;;;;;10.48;9.50;;;;;;;;;;5000714;28;20433;-84
2023/02/28 09:50:12;;;;;;;10.65;9.63;;;;;;;;;;5014025;28;20495;-84
2023/02/28 09:52:38;;;;;;;10.30;9.30;;;;;;;;;;5009926;28;20383;-84
2023/02/28 09:55:22;;;;;;;10.55;9.65;;;;;;;;;;4994401;28;20713;-84
2023/02/28 09:57:50;;;;;;;10.25;9.40;;;;;;;;;;5000846;28;20442;-85
2023/02/28 10:00:45;;;;;;;10.48;9.57;;;;;;;;;;5012201;28;20472;-83
2023/02/28 10:03:11;;;;;;;10.45;9.60;;;;;;;;;;4988391;28;20887;-84
2023/02/28 10:05:58;;;;;;;10.60;9.68;;;;;;;;;;5013849;28;20393;-83
2023/02/28 10:08:28;;;;;;;10.73;9.82;;;;;;;;;;4995786;28;20389;-84
2023/02/28 10:10:58;;;;;;;10.77;9.88;;;;;;;;;;5013760;28;20395;-84
2023/02/28 10:13:40;;;;;;;11.40;10.40;;;;;;;;;;5005260;28;20469;-83
2023/02/28 10:16:08;;;;;;;11.05;10.10;;;;;;;;;;5011642;28;20385;-84
2023/02/28 10:18:44;;;;;;;11.93;10.82;;;;;;;;;;4995317;28;20958;-83
2023/02/28 10:21:16;;;;;;;11.60;10.60;;;;;;;;;;5013313;28;20392;-84
2023/02/28 10:23:44;;;;;;;11.98;10.88;;;;;;;;;;5003377;28;20395;-83
2023/02/28 10:26:15;;;;;;;11.63;10.73;;;;;;;;;;5012878;28;20766;-83
2023/02/28 10:28:42;;;;;;;12.75;11.55;;;;;;;;;;5000608;28;20385;-83
2023/02/28 10:31:12;;;;;;;11.52;10.45;;;;;;;;;;5006965;28;20856;-83
2023/02/28 10:33:38;;;;;;;11.75;10.52;;;;;;;;;;4999643;28;20438;-86
2023/02/28 10:36:08;;;;;;;12.23;11.15;;;;;;;;;;5006678;28;20922;-84
2023/02/28 10:38:35;;;;;;;12.18;11.05;;;;;;;;;;4999019;28;20537;-84
2023/02/28 10:41:06;;;;;;;11.75;10.65;;;;;;;;;;5009025;28;20397;-85
2023/02/28 10:43:32;;;;;;;11.50;10.50;;;;;;;;;;4997512;28;20465;-84
2023/02/28 10:46:10;;;;;;;12.35;11.23;;;;;;;;;;5004046;28;20478;-85
2023/02/28 10:48:36;;;;;;;11.60;10.50;;;;;;;;;;4993327;28;20580;-85
2023/02/28 10:51:03;;;;;;;11.20;10.30;;;;;;;;;;5002245;28;20385;-85
2023/02/28 10:53:49;;;;;;;11.88;10.88;;;;;;;;;;5013034;28;20389;-85
2023/02/28 10:56:16;;;;;;;12.40;11.32;;;;;;;;;;5013570;28;20481;-85
2023/02/28 10:59:00;;;;;;;12.37;11.37;;;;;;;;;;5004538;28;20391;-85
2023/02/28 11:01:51;;;;;;;15.53;14.03;;;;;;;;;;5017674;28;20400;-85
2023/02/28 11:04:18;;;;;;;26.38;21.40;;;;;;;;;;5020693;28;20500;-83
2023/02/28 11:06:44;;;;;;;25.60;18.17;;;;;;;;;;5020102;28;20416;-84
2023/02/28 11:09:20;;;;;;;64.20;29.85;;;;;;;;;;5015184;28;20515;-85
2023/02/28 11:11:47;;;;;;;31.25;17.67;;;;;;;;;;5003838;28;25093;-85
2023/02/28 11:14:19;;;;;;;42.58;19.98;;;;;;;;;;5013366;28;20452;-85
2023/02/28 11:16:45;;;;;;;29.73;17.60;;;;;;;;;;5015313;28;20447;-85
2023/02/28 11:19:18;;;;;;;12.23;11.15;;;;;;;;;;5011199;28;20388;-86
2023/02/28 11:21:48;;;;;;;17.90;16.27;;;;;;;;;;5002122;28;20450;-85
2023/02/28 11:24:26;;;;;;;37.90;30.60;;;;;;;;;;5012482;28;20438;-85
2023/02/28 11:26:52;;;;;;;13.82;12.63;;;;;;;;;;5012425;28;20889;-85
2023/02/28 11:29:22;;;;;;;12.25;11.35;;;;;;;;;;5005017;28;20410;-87
2023/02/28 11:32:04;;;;;;;12.55;11.55;;;;;;;;;;4994604;28;20934;-86
2023/02/28 11:34:30;;;;;;;13.38;12.27;;;;;;;;;;5004778;28;20955;-86
2023/02/28 11:36:57;;;;;;;13.05;11.80;;;;;;;;;;5000330;28;20799;-83
2023/02/28 11:39:24;;;;;;;13.23;12.07;;;;;;;;;;5012031;28;20463;-83
2023/02/28 11:41:56;;;;;;;13.15;11.95;;;;;;;;;;5011910;28;20387;-85
2023/02/28 11:44:22;;;;;;;12.45;11.35;;;;;;;;;;5012105;28;20463;-83
2023/02/28 11:46:49;;;;;;;13.40;12.18;;;;;;;;;;5007259;28;20406;-86
2023/02/28 11:49:35;;;;;;;13.35;12.00;;;;;;;;;;5003098;28;20478;-86
2023/02/28 11:52:21;;;;;;;13.33;12.13;;;;;;;;;;5012269;28;20465;-86
2023/02/28 11:55:05;;;;;;;13.37;12.17;;;;;;;;;;5012350;28;20392;-86
2023/02/28 11:57:34;;;;;;;13.77;12.57;;;;;;;;;;5006670;28;20506;-86
2023/02/28 12:00:03;;;;;;;13.23;12.13;;;;;;;;;;4990667;28;20882;-85
2023/02/28 12:02:34;;;;;;;14.20;12.93;;;;;;;;;;5011974;28;20393;-87
2023/02/28 12:05:12;;;;;;;13.70;12.50;;;;;;;;;;5011968;28;20566;-86
2023/02/28 12:07:47;;;;;;;13.77;12.57;;;;;;;;;;5011929;28;20384;-86
2023/02/28 12:10:13;;;;;;;13.60;12.50;;;;;;;;;;5011813;28;20416;-86
2023/02/28 12:12:45;;;;;;;13.55;12.35;;;;;;;;;;5003401;28;20389;-86
2023/02/28 12:15:11;;;;;;;13.38;12.23;;;;;;;;;;5012070;28;20471;-86
2023/02/28 12:17:50;;;;;;;13.57;12.48;;;;;;;;;;4994097;28;20912;-86
2023/02/28 12:20:37;;;;;;;13.30;12.20;;;;;;;;;;5008977;28;20550;-87
2023/02/28 12:23:14;;;;;;;13.32;12.23;;;;;;;;;;5012091;28;20457;-87
2023/02/28 12:25:44;;;;;;;14.13;12.82;;;;;;;;;;5015579;28;20397;-86
2023/02/28 12:28:12;;;;;;;13.57;12.38;;;;;;;;;;5015896;28;20449;-85
2023/02/28 12:30:41;;;;;;;13.50;12.40;;;;;;;;;;5015232;28;20549;-84
2023/02/28 12:33:18;;;;;;;13.47;12.37;;;;;;;;;;5015161;28;20420;-87
2023/02/28 12:35:44;;;;;;;13.65;12.35;;;;;;;;;;5015372;28;20958;-84
2023/02/28 12:38:13;;;;;;;13.75;12.63;;;;;;;;;;4997654;28;20536;-84
2023/02/28 12:40:43;;;;;;;14.40;13.10;;;;;;;;;;5015448;28;20434;-85
2023/02/28 12:43:10;;;;;;;14.15;12.85;;;;;;;;;;5015338;28;20434;-84
2023/02/28 12:45:48;;;;;;;14.10;12.82;;;;;;;;;;5015420;28;20398;-85
2023/02/28 12:48:15;;;;;;;14.55;13.15;;;;;;;;;;5015131;28;20393;-85
2023/02/28 12:50:42;;;;;;;13.95;12.75;;;;;;;;;;5015391;28;20458;-85
2023/02/28 12:53:08;;;;;;;14.38;12.90;;;;;;;;;;5017482;28;20397;-84
2023/02/28 12:55:42;;;;;;;15.18;13.82;;;;;;;;;;5015883;28;20403;-85
2023/02/28 12:58:14;;;;;;;14.50;12.70;;;;;;;;;;5015492;28;20467;-86
2023/02/28 13:00:49;;;;;;;14.85;13.35;;;;;;;;;;5014936;28;20392;-85
2023/02/28 13:03:33;;;;;;;14.80;13.23;;;;;;;;;;5015002;28;20449;-86
2023/02/28 13:06:11;;;;;;;15.02;13.73;;;;;;;;;;4997217;28;20385;-84
2023/02/28 13:08:40;;;;;;;14.35;13.05;;;;;;;;;;4981830;28;20405;-85
2023/02/28 13:11:06;;;;;;;14.63;13.23;;;;;;;;;;5000601;28;20513;-84
2023/02/28 13:13:32;;;;;;;15.40;14.00;;;;;;;;;;5009670;28;20523;-85
2023/02/28 13:16:04;;;;;;;15.35;13.95;;;;;;;;;;5015264;28;20921;-84
2023/02/28 13:18:40;;;;;;;15.57;14.07;;;;;;;;;;4995547;28;20889;-85
2023/02/28 13:21:10;;;;;;;15.75;14.35;;;;;;;;;;4999257;28;20472;-84
2023/02/28 13:23:41;;;;;;;18.58;16.75;;;;;;;;;;5008293;28;20476;-85
2023/02/28 13:26:07;;;;;;;15.48;14.05;;;;;;;;;;5014608;28;20385;-85
2023/02/28 13:28:49;;;;;;;16.17;14.55;;;;;;;;;;5014616;28;20400;-84
2023/02/28 13:31:17;;;;;;;16.15;14.60;;;;;;;;;;4993301;28;20873;-84
2023/02/28 13:33:45;;;;;;;15.63;14.10;;;;;;;;;;5014637;28;20830;-84
2023/02/28 13:36:15;;;;;;;15.38;13.98;;;;;;;;;;5014527;28;20393;-84
2023/02/28 13:38:55;;;;;;;14.93;13.63;;;;;;;;;;5014027;28;20473;-84
2023/02/28 13:41:30;;;;;;;14.70;13.38;;;;;;;;;;5006507;28;20911;-84
2023/02/28 13:44:02;;;;;;;16.05;14.65;;;;;;;;;;5010511;28;20394;-84
2023/02/28 13:46:28;;;;;;;14.38;13.00;;;;;;;;;;5027089;28;20385;-84
2023/02/28 13:48:54;;;;;;;14.60;13.40;;;;;;;;;;5002006;28;20446;-84
2023/02/28 13:51:40;;;;;;;14.85;13.65;;;;;;;;;;4995616;28;20409;-84
2023/02/28 13:54:35;;;;;;;14.30;13.10;;;;;;;;;;4995416;28;20419;-84
2023/02/28 13:57:07;;;;;;;15.43;14.10;;;;;;;;;;5002423;28;20471;-84
2023/02/28 13:59:38;;;;;;;15.00;13.65;;;;;;;;;;4993905;28;20868;-84
2023/02/28 14:02:04;;;;;;;15.27;13.88;;;;;;;;;;4995016;28;20427;-84
2023/02/28 14:04:46;;;;;;;16.00;14.43;;;;;;;;;;4995089;28;20769;-84
2023/02/28 14:07:28;;;;;;;17.58;15.75;;;;;;;;;;4995483;28;20407;-84
2023/02/28 14:10:05;;;;;;;17.60;15.82;;;;;;;;;;4989639;28;20435;-84
2023/02/28 14:12:50;;;;;;;26.08;20.10;;;;;;;;;;5004042;28;20393;-84
2023/02/28 14:15:34;;;;;;;23.17;20.75;;;;;;;;;;5002259;28;20428;-84
2023/02/28 14:18:05;;;;;;;16.20;14.65;;;;;;;;;;4994574;28;20397;-84
2023/02/28 14:20:34;;;;;;;15.90;14.52;;;;;;;;;;4977191;28;20955;-84
2023/02/28 14:23:18;;;;;;;15.88;14.38;;;;;;;;;;5001233;28;20395;-84
2023/02/28 14:25:54;;;;;;;16.10;14.70;;;;;;;;;;4995726;28;20505;-82
2023/02/28 14:28:26;;;;;;;15.30;13.90;;;;;;;;;;5018413;28;20430;-86
2023/02/28 14:31:12;;;;;;;15.00;13.50;;;;;;;;;;4994417;28;20423;-84
2023/02/28 14:33:58;;;;;;;15.55;14.20;;;;;;;;;;5012656;28;20381;-85
2023/02/28 14:36:32;;;;;;;15.05;13.68;;;;;;;;;;5018889;28;20468;-85
2023/02/28 14:39:00;;;;;;;15.30;13.88;;;;;;;;;;4992906;28;21863;-87
2023/02/28 14:41:38;;;;;;;15.50;14.10;;;;;;;;;;4996456;28;20436;-87
2023/02/28 14:44:13;;;;;;;14.85;13.55;;;;;;;;;;4994446;28;20390;-88
2023/02/28 14:46:40;;;;;;;14.50;13.30;;;;;;;;;;4978116;28;20821;-86
2023/02/28 14:49:07;;;;;;;14.88;13.48;;;;;;;;;;5004599;28;20412;-87
2023/02/28 14:51:33;;;;;;;14.52;13.23;;;;;;;;;;4987975;28;20402;-86